Time;durP1;ratioP1;P1;durP2;ratioP2;P2;SDS_P1;SDS_P2;PMS_P1;PMS_P2;Temp;Humidity;BMP_temperature;BMP_pressure;BME280_temperature;BME280_humidity;BME280_pressure;Samples;Min_cycle;Max_cycle;Signal;HPM_P1;HPM_P2
2021/08/09 00:01:49;;;;;;;6.35;2.35;;;16.10;96.60;;;;;;4997892;28;20040;-83
2021/08/09 00:07:37;;;;;;;10.43;2.53;;;16.10;96.20;;;;;;5015518;28;20048;-83
2021/08/09 00:10:03;;;;;;;8.95;2.83;;;16.00;96.30;;;;;;4997609;28;20472;-83
2021/08/09 00:12:28;;;;;;;6.75;2.58;;;16.00;96.20;;;;;;5012371;28;20484;-83
2021/08/09 00:14:54;;;;;;;7.88;2.95;;;16.00;95.70;;;;;;4997318;28;20040;-83
2021/08/09 00:17:20;;;;;;;5.72;2.42;;;16.00;96.40;;;;;;4997374;28;20036;-83
2021/08/09 00:19:45;;;;;;;7.53;2.72;;;16.00;96.20;;;;;;4997352;28;20026;-84
2021/08/09 00:22:11;;;;;;;9.60;2.90;;;16.00;96.50;;;;;;4997297;28;20439;-83
2021/08/09 00:24:37;;;;;;;9.50;2.83;;;16.00;96.00;;;;;;4996977;28;20033;-82
2021/08/09 00:27:03;;;;;;;9.32;2.88;;;16.00;96.30;;;;;;4997176;28;20127;-83
2021/08/09 00:29:29;;;;;;;6.28;2.70;;;15.90;95.80;;;;;;4997149;28;20507;-83
2021/08/09 00:31:54;;;;;;;10.95;2.80;;;15.90;96.10;;;;;;4997372;28;20022;-83
2021/08/09 00:34:20;;;;;;;7.55;2.83;;;15.90;96.30;;;;;;4997087;28;20548;-83
2021/08/09 00:36:46;;;;;;;7.15;2.80;;;15.90;96.40;;;;;;5013044;28;20579;-83
2021/08/09 00:39:12;;;;;;;6.00;2.55;;;15.90;96.30;;;;;;5020699;28;20027;-83
2021/08/09 00:41:41;;;;;;;7.90;2.67;;;15.90;95.50;;;;;;5032859;28;20033;-83
2021/08/09 00:44:06;;;;;;;10.48;2.72;;;15.90;95.70;;;;;;5016365;28;20475;-83
2021/08/09 00:46:33;;;;;;;6.38;2.53;;;15.90;95.80;;;;;;5032934;28;20021;-83
2021/08/09 00:48:58;;;;;;;9.35;2.53;;;15.90;96.00;;;;;;5016075;28;20037;-83
2021/08/09 00:51:24;;;;;;;11.43;2.60;;;15.90;96.20;;;;;;5016325;28;20028;-83
2021/08/09 00:53:50;;;;;;;7.45;2.47;;;15.90;95.50;;;;;;5034043;28;20108;-84
2021/08/09 00:56:17;;;;;;;7.50;2.40;;;15.90;95.90;;;;;;5016437;28;20076;-83
2021/08/09 00:58:43;;;;;;;9.38;2.55;;;15.90;96.20;;;;;;5016622;28;20025;-83
2021/08/09 01:01:10;;;;;;;10.88;3.05;;;15.90;96.00;;;;;;4999744;28;20134;-83
2021/08/09 01:03:36;;;;;;;11.82;2.90;;;15.90;96.30;;;;;;5016128;28;20033;-83
2021/08/09 01:06:02;;;;;;;9.18;2.92;;;15.80;95.90;;;;;;5032591;28;20029;-82
2021/08/09 01:08:49;;;;;;;7.03;2.35;;;15.90;96.00;;;;;;5032546;28;20482;-82
2021/08/09 01:11:29;;;;;;;8.98;2.47;;;15.80;96.20;;;;;;5032773;28;20426;-83
2021/08/09 01:14:23;;;;;;;9.45;2.83;;;15.80;96.30;;;;;;5032543;28;20101;-82
2021/08/09 01:16:49;;;;;;;10.52;3.00;;;15.80;96.00;;;;;;5032430;28;20057;-83
2021/08/09 01:19:36;;;;;;;7.45;2.80;;;15.80;96.20;;;;;;5033669;28;20083;-84
2021/08/09 01:22:39;;;;;;;7.95;2.60;;;15.80;96.20;;;;;;5033833;28;20503;-83
2021/08/09 01:25:10;;;;;;;7.32;2.63;;;15.80;95.80;;;;;;5032451;28;20075;-84
2021/08/09 01:27:41;;;;;;;7.20;2.35;;;15.70;95.70;;;;;;5032294;28;20112;-84
2021/08/09 01:30:09;;;;;;;8.80;2.93;;;15.70;96.20;;;;;;5032163;28;20026;-83
2021/08/09 01:32:37;;;;;;;10.73;3.13;;;15.70;95.90;;;;;;5015906;28;20053;-83
2021/08/09 01:35:06;;;;;;;10.25;2.80;;;15.70;95.60;;;;;;5015669;28;20121;-83
2021/08/09 01:37:35;;;;;;;6.80;2.60;;;15.60;95.80;;;;;;5031841;28;20056;-83
2021/08/09 01:40:02;;;;;;;8.48;3.00;;;15.60;95.90;;;;;;5033541;28;20025;-83
2021/08/09 01:42:28;;;;;;;9.73;2.60;;;15.60;95.90;;;;;;5015770;28;20434;-83
2021/08/09 01:45:00;;;;;;;7.28;2.75;;;15.60;95.90;;;;;;5015792;28;20032;-82
2021/08/09 01:47:26;;;;;;;8.40;2.58;;;15.60;96.00;;;;;;5033430;28;20029;-83
2021/08/09 01:49:53;;;;;;;7.25;2.75;;;15.60;96.00;;;;;;5032037;28;20025;-83
2021/08/09 01:52:20;;;;;;;7.70;2.72;;;15.60;96.30;;;;;;5015701;28;20357;-83
2021/08/09 01:54:48;;;;;;;7.32;2.55;;;15.60;95.90;;;;;;5032218;28;20041;-83
2021/08/09 01:57:14;;;;;;;10.80;3.38;;;15.60;96.30;;;;;;5015826;28;20032;-83
2021/08/09 01:59:40;;;;;;;14.05;3.40;;;15.60;96.20;;;;;;5015653;28;20038;-83
2021/08/09 02:02:06;;;;;;;9.38;2.67;;;15.50;96.20;;;;;;5036125;28;20040;-84
2021/08/09 02:04:32;;;;;;;7.80;2.47;;;15.50;96.00;;;;;;5035737;28;20036;-84
2021/08/09 02:06:58;;;;;;;8.15;2.50;;;15.50;96.20;;;;;;5036004;28;20021;-84
2021/08/09 02:09:24;;;;;;;6.95;2.67;;;15.50;95.60;;;;;;5035760;28;20523;-84
2021/08/09 02:11:59;;;;;;;7.75;3.13;;;15.50;96.10;;;;;;5002786;28;20120;-83
2021/08/09 02:14:28;;;;;;;10.35;2.70;;;15.50;95.80;;;;;;5035822;28;20502;-84
2021/08/09 02:17:08;;;;;;;9.95;2.90;;;15.40;95.80;;;;;;5035703;28;20033;-84
2021/08/09 02:19:45;;;;;;;8.93;2.75;;;15.40;96.20;;;;;;5035856;28;20033;-85
2021/08/09 02:22:21;;;;;;;7.95;3.10;;;15.40;95.80;;;;;;5035551;28;20143;-85
2021/08/09 02:28:18;;;;;;;8.80;2.90;;;15.50;96.40;;;;;;5037151;28;20040;-85
2021/08/09 02:30:53;;;;;;;9.93;2.92;;;15.40;95.80;;;;;;5024298;28;20025;-84
2021/08/09 02:33:22;;;;;;;7.47;2.72;;;15.40;96.20;;;;;;5035415;28;20061;-83
2021/08/09 02:35:49;;;;;;;9.90;2.88;;;15.40;96.30;;;;;;5005246;28;20096;-83
2021/08/09 02:38:16;;;;;;;9.65;2.80;;;15.40;96.10;;;;;;5015592;28;20030;-84
2021/08/09 02:40:42;;;;;;;8.80;2.85;;;15.40;96.20;;;;;;5015536;28;20412;-84
2021/08/09 02:43:08;;;;;;;7.65;2.72;;;15.40;95.80;;;;;;5015413;28;20025;-84
2021/08/09 02:45:35;;;;;;;8.55;2.78;;;15.40;96.00;;;;;;4999075;28;20049;-84
2021/08/09 02:48:02;;;;;;;13.48;3.00;;;15.40;95.70;;;;;;5015584;28;20048;-84
2021/08/09 02:50:28;;;;;;;7.82;2.72;;;15.30;96.20;;;;;;5015327;28;20076;-84
2021/08/09 02:52:54;;;;;;;9.00;3.03;;;15.30;96.10;;;;;;5015383;28;20105;-84
2021/08/09 02:55:22;;;;;;;8.48;2.53;;;15.40;95.90;;;;;;4999217;28;20026;-84
2021/08/09 02:57:49;;;;;;;11.75;3.22;;;15.30;96.10;;;;;;5012105;28;20041;-84
2021/08/09 03:00:15;;;;;;;11.07;3.17;;;15.40;96.20;;;;;;5034795;28;20438;-84
2021/08/09 03:02:42;;;;;;;9.57;2.50;;;15.30;96.20;;;;;;5034933;28;20022;-84
2021/08/09 03:05:11;;;;;;;11.02;2.85;;;15.30;96.20;;;;;;5034610;28;20049;-84
2021/08/09 03:07:38;;;;;;;6.38;2.70;;;15.30;96.20;;;;;;5036099;28;20083;-84
2021/08/09 03:10:11;;;;;;;10.35;2.92;;;15.30;95.90;;;;;;5035247;28;20053;-84
2021/08/09 03:12:38;;;;;;;8.55;3.05;;;15.30;95.80;;;;;;5001583;28;20040;-84
2021/08/09 03:15:05;;;;;;;15.13;2.75;;;15.30;96.10;;;;;;5018276;28;20084;-84
2021/08/09 03:17:30;;;;;;;9.77;2.67;;;15.30;95.90;;;;;;5018064;28;20033;-84
2021/08/09 03:19:56;;;;;;;7.13;2.60;;;15.30;96.30;;;;;;5017947;28;20541;-84
2021/08/09 03:22:22;;;;;;;8.98;2.67;;;15.30;96.30;;;;;;5018144;28;20124;-84
2021/08/09 03:24:48;;;;;;;9.30;2.65;;;15.30;96.30;;;;;;5001506;28;20022;-84
2021/08/09 03:27:15;;;;;;;7.35;2.72;;;15.30;96.10;;;;;;5034343;28;20018;-84
2021/08/09 03:29:40;;;;;;;7.97;2.53;;;15.30;96.40;;;;;;5035793;28;20032;-83
2021/08/09 03:32:07;;;;;;;8.80;2.80;;;15.30;96.40;;;;;;5017686;28;20022;-84
2021/08/09 03:34:32;;;;;;;10.57;2.92;;;15.30;96.10;;;;;;5034274;28;20029;-84
2021/08/09 03:36:58;;;;;;;9.02;2.20;;;15.30;96.20;;;;;;5034131;28;20056;-84
2021/08/09 03:39:30;;;;;;;7.25;2.33;;;15.30;96.20;;;;;;5001077;28;20125;-84
2021/08/09 03:41:55;;;;;;;9.82;3.05;;;15.30;96.20;;;;;;4997846;28;20501;-84
2021/08/09 03:44:21;;;;;;;10.00;2.55;;;15.30;96.20;;;;;;5014101;28;20137;-83
2021/08/09 03:46:47;;;;;;;10.60;2.90;;;15.30;95.80;;;;;;5014563;28;20109;-84
2021/08/09 03:49:12;;;;;;;13.38;3.17;;;15.30;96.10;;;;;;4998099;28;20486;-84
2021/08/09 03:51:39;;;;;;;11.13;3.28;;;15.30;96.00;;;;;;4997940;28;20196;-84
2021/08/09 03:54:06;;;;;;;10.05;3.00;;;15.30;96.10;;;;;;5014000;28;20033;-84
2021/08/09 03:56:32;;;;;;;9.35;2.40;;;15.20;95.90;;;;;;4998010;28;20037;-84
2021/08/09 03:58:57;;;;;;;8.15;2.83;;;15.20;96.00;;;;;;4981572;28;20036;-84
2021/08/09 04:01:23;;;;;;;10.27;2.40;;;15.20;96.20;;;;;;5013939;28;20113;-84
2021/08/09 04:03:49;;;;;;;11.85;2.78;;;15.20;96.30;;;;;;4997578;28;20553;-84
2021/08/09 04:06:16;;;;;;;10.75;3.17;;;15.20;96.20;;;;;;4997931;28;20384;-83
2021/08/09 04:08:42;;;;;;;7.85;2.20;;;15.30;96.30;;;;;;5014527;28;20026;-83
2021/08/09 04:11:08;;;;;;;7.82;2.47;;;15.20;96.40;;;;;;5015697;28;20438;-84
2021/08/09 04:13:34;;;;;;;10.02;3.63;;;15.20;96.10;;;;;;5015119;28;20100;-84
2021/08/09 04:16:01;;;;;;;8.82;2.60;;;15.20;96.20;;;;;;4997495;28;20036;-84
2021/08/09 04:18:26;;;;;;;14.18;3.67;;;15.30;96.60;;;;;;5014161;28;20018;-84
2021/08/09 04:20:52;;;;;;;11.85;3.28;;;15.20;96.40;;;;;;4997131;28;20546;-84
2021/08/09 04:23:18;;;;;;;11.63;2.90;;;15.30;96.50;;;;;;4996368;28;20026;-83
2021/08/09 04:25:43;;;;;;;12.32;3.17;;;15.20;96.30;;;;;;4981155;28;20033;-84
2021/08/09 04:28:09;;;;;;;11.48;3.00;;;15.20;96.30;;;;;;4997371;28;20383;-83
2021/08/09 04:30:35;;;;;;;10.23;2.92;;;15.20;96.40;;;;;;4997252;28;20498;-83
2021/08/09 04:33:03;;;;;;;8.63;2.80;;;15.20;96.30;;;;;;4997297;28;20036;-83
2021/08/09 04:35:29;;;;;;;9.75;2.65;;;15.20;96.40;;;;;;5022783;23;20028;-85
2021/08/09 04:37:55;;;;;;;10.20;2.88;;;15.20;96.20;;;;;;5016837;28;20045;-85
2021/08/09 04:40:20;;;;;;;10.15;2.42;;;15.20;96.30;;;;;;5032942;28;20021;-85
2021/08/09 04:42:46;;;;;;;10.57;2.80;;;15.30;96.70;;;;;;4999106;28;20466;-86
2021/08/09 04:45:12;;;;;;;10.10;2.65;;;15.20;96.20;;;;;;4999006;28;20048;-86
2021/08/09 04:47:37;;;;;;;8.88;2.35;;;15.20;96.40;;;;;;5033006;28;20029;-85
2021/08/09 04:50:04;;;;;;;9.18;2.70;;;15.20;96.40;;;;;;5015233;28;20417;-85
2021/08/09 04:52:29;;;;;;;9.50;2.42;;;15.20;96.60;;;;;;5015150;28;20022;-85
2021/08/09 04:54:55;;;;;;;9.85;2.88;;;15.20;96.30;;;;;;5015307;28;20374;-86
2021/08/09 04:57:21;;;;;;;11.80;2.70;;;15.30;96.60;;;;;;4998897;28;20128;-86
2021/08/09 04:59:46;;;;;;;9.35;2.97;;;15.30;96.60;;;;;;4998614;28;20032;-86
2021/08/09 05:02:12;;;;;;;10.57;2.83;;;15.30;96.60;;;;;;5033042;28;20064;-85
2021/08/09 05:04:38;;;;;;;9.80;2.88;;;15.30;96.50;;;;;;5032589;28;20060;-85
2021/08/09 05:07:04;;;;;;;11.38;2.85;;;15.30;96.70;;;;;;5032814;28;20074;-85
2021/08/09 05:09:31;;;;;;;9.73;2.67;;;15.30;96.40;;;;;;5001392;28;20352;-85
2021/08/09 05:11:57;;;;;;;8.63;2.38;;;15.40;96.70;;;;;;5032989;28;20419;-85
2021/08/09 05:14:23;;;;;;;8.77;2.60;;;15.40;96.80;;;;;;5015230;28;20171;-85
2021/08/09 05:16:48;;;;;;;7.25;2.80;;;15.30;96.80;;;;;;4998782;28;20152;-85
2021/08/09 05:19:14;;;;;;;8.85;2.67;;;15.40;96.80;;;;;;5015085;28;20044;-85
2021/08/09 05:21:40;;;;;;;12.20;3.08;;;15.40;96.60;;;;;;5015134;28;20467;-84
2021/08/09 05:24:05;;;;;;;7.78;2.72;;;15.40;96.80;;;;;;5032384;28;20030;-85
2021/08/09 05:26:31;;;;;;;6.53;2.58;;;15.40;96.80;;;;;;5014703;28;20410;-85
2021/08/09 05:28:58;;;;;;;9.55;2.75;;;15.40;96.80;;;;;;5014854;28;20037;-85
2021/08/09 05:31:27;;;;;;;9.60;2.72;;;15.40;96.60;;;;;;4998625;28;20029;-85
2021/08/09 05:33:56;;;;;;;10.02;3.45;;;15.40;96.90;;;;;;4995386;28;20022;-85
2021/08/09 05:36:22;;;;;;;10.68;2.95;;;15.50;96.60;;;;;;5024438;28;20107;-85
2021/08/09 05:38:47;;;;;;;9.80;3.22;;;15.50;96.60;;;;;;4996960;28;20042;-86
2021/08/09 05:41:13;;;;;;;7.38;2.33;;;15.50;96.90;;;;;;5003968;28;20035;-86
2021/08/09 05:43:38;;;;;;;9.82;3.53;;;15.50;96.60;;;;;;5019092;28;20062;-85
2021/08/09 05:46:04;;;;;;;9.38;2.88;;;15.50;96.80;;;;;;5012752;28;20045;-85
2021/08/09 05:48:30;;;;;;;12.18;2.92;;;15.50;97.00;;;;;;5021203;28;20030;-85
2021/08/09 05:50:56;;;;;;;8.27;3.20;;;15.50;96.70;;;;;;5026821;28;20025;-85
2021/08/09 05:53:22;;;;;;;9.10;2.63;;;15.60;96.90;;;;;;5024198;28;20037;-85
2021/08/09 05:55:47;;;;;;;14.10;3.47;;;15.60;97.10;;;;;;5024976;28;20032;-86
2021/08/09 05:58:13;;;;;;;11.98;2.60;;;15.60;97.10;;;;;;4993939;28;20038;-85
2021/08/09 06:00:38;;;;;;;11.98;3.47;;;15.70;97.00;;;;;;5002433;28;20065;-85
2021/08/09 06:03:04;;;;;;;10.50;3.58;;;15.70;96.90;;;;;;4988186;28;20099;-85
2021/08/09 06:05:30;;;;;;;11.20;2.90;;;15.70;96.90;;;;;;5003012;28;20042;-85
2021/08/09 06:07:56;;;;;;;7.97;3.05;;;15.70;97.00;;;;;;5006473;28;20119;-85
2021/08/09 06:10:22;;;;;;;9.52;3.00;;;15.70;96.70;;;;;;5006808;28;20084;-85
2021/08/09 06:12:49;;;;;;;13.07;3.85;;;15.70;96.90;;;;;;4996941;28;20430;-85
2021/08/09 06:15:14;;;;;;;9.75;2.90;;;15.70;96.90;;;;;;4994697;28;20479;-85
2021/08/09 06:17:40;;;;;;;9.57;2.90;;;15.70;96.60;;;;;;4980835;28;20036;-86
2021/08/09 06:20:07;;;;;;;8.27;2.75;;;15.70;96.90;;;;;;4999548;28;20184;-85
2021/08/09 06:22:32;;;;;;;7.55;3.08;;;15.80;96.70;;;;;;4991696;28;20032;-85
2021/08/09 06:24:58;;;;;;;7.95;2.80;;;15.80;96.50;;;;;;5010652;28;20109;-86
2021/08/09 06:27:24;;;;;;;9.95;2.95;;;15.80;96.50;;;;;;5008250;28;20027;-85
2021/08/09 06:29:50;;;;;;;9.95;3.05;;;15.80;96.80;;;;;;4994310;28;20095;-86
2021/08/09 06:32:15;;;;;;;7.25;2.85;;;15.80;96.80;;;;;;5010454;28;20029;-85
2021/08/09 06:34:41;;;;;;;7.03;3.17;;;15.80;97.10;;;;;;4994929;28;20478;-85
2021/08/09 06:37:07;;;;;;;10.40;3.80;;;15.80;96.80;;;;;;5010690;28;20058;-85
2021/08/09 06:39:33;;;;;;;8.65;3.50;;;15.80;97.00;;;;;;4999590;28;20030;-85
2021/08/09 06:42:02;;;;;;;9.77;3.40;;;15.90;97.10;;;;;;4979107;28;20062;-85
2021/08/09 06:44:32;;;;;;;9.02;3.55;;;15.80;97.10;;;;;;4992712;28;20037;-85
2021/08/09 06:46:58;;;;;;;5.90;3.00;;;15.90;97.10;;;;;;5010240;28;20026;-85
2021/08/09 06:49:24;;;;;;;8.82;3.03;;;15.90;97.20;;;;;;5017961;28;20076;-85
2021/08/09 06:51:50;;;;;;;8.95;3.10;;;16.00;97.30;;;;;;5016168;28;20022;-86
2021/08/09 06:54:16;;;;;;;9.05;3.35;;;16.00;97.30;;;;;;4994214;28;20122;-85
2021/08/09 06:56:41;;;;;;;10.15;4.07;;;16.10;97.20;;;;;;4996948;28;20466;-87
2021/08/09 06:59:07;;;;;;;11.05;4.05;;;16.10;97.10;;;;;;4981551;28;20083;-86
2021/08/09 07:01:32;;;;;;;9.88;2.97;;;16.20;97.20;;;;;;5014691;28;20395;-86
2021/08/09 07:03:59;;;;;;;12.30;3.53;;;16.20;97.30;;;;;;5000616;28;20042;-85
2021/08/09 07:06:24;;;;;;;11.23;3.65;;;16.30;97.10;;;;;;4976054;28;20025;-86
2021/08/09 07:08:54;;;;;;;8.90;3.25;;;16.30;96.60;;;;;;4975074;28;20038;-86
2021/08/09 07:11:21;;;;;;;7.65;3.25;;;16.40;96.90;;;;;;5009153;28;20081;-86
2021/08/09 07:13:48;;;;;;;19.10;4.25;;;16.50;97.00;;;;;;5007311;28;20025;-86
2021/08/09 07:16:14;;;;;;;11.40;3.20;;;16.50;96.50;;;;;;5013352;28;20029;-86
2021/08/09 07:18:40;;;;;;;10.60;3.50;;;16.50;96.70;;;;;;4990296;28;20026;-86
2021/08/09 07:21:09;;;;;;;11.43;3.42;;;16.60;96.30;;;;;;5008779;28;20120;-85
2021/08/09 07:24:03;;;;;;;8.27;2.80;;;16.70;96.50;;;;;;5015816;28;20028;-85
2021/08/09 07:26:29;;;;;;;8.45;3.03;;;16.70;96.50;;;;;;5003216;28;20033;-86
2021/08/09 07:28:54;;;;;;;7.80;3.03;;;16.80;96.70;;;;;;5014640;28;20030;-86
2021/08/09 07:31:20;;;;;;;8.45;2.95;;;16.90;96.80;;;;;;4984498;28;20026;-85
2021/08/09 07:37:08;;;;;;;9.88;3.20;;;17.00;97.40;;;;;;5021637;28;20068;-84
2021/08/09 07:39:36;;;;;;;7.53;2.90;;;17.10;97.10;;;;;;4984448;28;20029;-85
2021/08/09 07:42:02;;;;;;;8.52;3.08;;;17.10;96.90;;;;;;5007773;28;20026;-86
2021/08/09 07:44:28;;;;;;;7.68;2.53;;;17.20;95.90;;;;;;4986811;28;20065;-85
2021/08/09 07:46:54;;;;;;;8.38;2.78;;;17.20;96.20;;;;;;5000369;28;20033;-85
2021/08/09 07:49:20;;;;;;;6.22;2.58;;;17.30;96.10;;;;;;4987790;28;20026;-85
2021/08/09 07:51:45;;;;;;;8.07;2.67;;;17.40;95.90;;;;;;4998219;28;20383;-85
2021/08/09 07:54:11;;;;;;;6.00;2.33;;;17.50;95.80;;;;;;5015198;28;20034;-85
2021/08/09 07:56:37;;;;;;;7.00;2.58;;;17.50;95.60;;;;;;4997180;28;20026;-86
2021/08/09 07:59:03;;;;;;;6.13;2.53;;;17.60;94.30;;;;;;4998536;28;20037;-86
2021/08/09 08:01:29;;;;;;;6.13;2.63;;;17.70;95.30;;;;;;4984189;28;20390;-86
2021/08/09 08:03:54;;;;;;;8.63;3.25;;;17.80;94.90;;;;;;5034325;28;20021;-86
2021/08/09 08:06:20;;;;;;;5.50;2.25;;;17.80;94.10;;;;;;5012863;28;20480;-85
2021/08/09 08:08:45;;;;;;;10.80;2.70;;;17.90;94.80;;;;;;4981256;28;20030;-85
2021/08/09 08:11:11;;;;;;;8.55;2.75;;;18.00;94.40;;;;;;4999440;28;20049;-85
2021/08/09 08:13:37;;;;;;;10.13;2.90;;;18.00;94.30;;;;;;5015806;28;20079;-86
2021/08/09 08:16:03;;;;;;;10.77;3.17;;;18.10;94.40;;;;;;4983465;28;20056;-85
2021/08/09 08:18:28;;;;;;;8.00;2.85;;;18.20;94.20;;;;;;5009314;28;20531;-85
2021/08/09 08:20:54;;;;;;;13.77;3.38;;;18.20;93.40;;;;;;5009737;28;20398;-86
2021/08/09 08:23:20;;;;;;;7.32;2.65;;;18.30;93.60;;;;;;5015686;28;20156;-85
2021/08/09 08:25:46;;;;;;;5.65;2.38;;;18.40;93.30;;;;;;4996907;28;20034;-85
2021/08/09 08:28:11;;;;;;;9.38;2.53;;;18.40;92.80;;;;;;5019942;28;20445;-85
2021/08/09 08:30:37;;;;;;;5.95;2.42;;;18.50;93.20;;;;;;5015735;28;20505;-85
2021/08/09 08:33:03;;;;;;;6.57;2.13;;;18.50;92.20;;;;;;5015456;28;20033;-85
2021/08/09 08:35:28;;;;;;;7.93;2.60;;;18.60;92.10;;;;;;5015915;28;20045;-86
2021/08/09 08:37:54;;;;;;;6.35;2.17;;;18.60;92.40;;;;;;4987361;28;20471;-85
2021/08/09 08:40:20;;;;;;;8.07;2.30;;;18.70;92.30;;;;;;5015778;28;20474;-85
2021/08/09 08:42:47;;;;;;;5.88;2.60;;;18.80;91.50;;;;;;5031609;28;20033;-85
2021/08/09 08:45:21;;;;;;;11.70;2.60;;;18.80;92.10;;;;;;4982736;28;20402;-85
2021/08/09 08:47:48;;;;;;;8.43;2.15;;;18.80;91.80;;;;;;5015655;28;20025;-86
2021/08/09 08:50:17;;;;;;;6.57;2.40;;;18.90;91.60;;;;;;4999078;28;20038;-85
2021/08/09 08:52:47;;;;;;;4.55;1.90;;;18.90;91.00;;;;;;5033101;28;20040;-85
2021/08/09 08:55:14;;;;;;;5.80;2.10;;;19.00;91.20;;;;;;5033350;28;20029;-85
2021/08/09 08:57:40;;;;;;;5.57;2.10;;;19.10;91.60;;;;;;5015755;28;20027;-85
2021/08/09 09:00:06;;;;;;;6.88;2.00;;;19.10;90.60;;;;;;5033190;28;20033;-85
2021/08/09 09:02:37;;;;;;;5.97;1.90;;;19.20;90.80;;;;;;4999045;28;20044;-86
2021/08/09 09:05:08;;;;;;;3.55;2.00;;;19.30;90.40;;;;;;5033178;28;20382;-86
2021/08/09 09:07:34;;;;;;;4.05;1.60;;;19.30;90.70;;;;;;5032983;28;20025;-86
2021/08/09 09:10:13;;;;;;;5.35;1.98;;;19.40;90.40;;;;;;4998774;28;20025;-86
2021/08/09 09:12:39;;;;;;;5.18;1.92;;;19.50;90.40;;;;;;5011886;28;20040;-86
2021/08/09 09:15:06;;;;;;;5.22;1.98;;;19.50;88.60;;;;;;4989979;28;20029;-84
2021/08/09 09:17:39;;;;;;;6.20;1.75;;;19.60;90.10;;;;;;4982584;28;20129;-85
2021/08/09 09:20:24;;;;;;;7.18;2.28;;;19.70;90.00;;;;;;5005332;28;20061;-86
2021/08/09 09:23:11;;;;;;;4.20;1.98;;;19.80;90.20;;;;;;4999443;28;20037;-86
2021/08/09 09:25:37;;;;;;;4.68;1.75;;;19.80;90.50;;;;;;5008053;28;20048;-86
2021/08/09 09:28:21;;;;;;;6.25;2.20;;;19.90;88.40;;;;;;5014666;28;20037;-86
2021/08/09 09:30:48;;;;;;;6.40;1.90;;;19.90;90.10;;;;;;5013301;28;20390;-87
2021/08/09 09:33:15;;;;;;;9.52;2.85;;;19.90;88.10;;;;;;5018699;28;20440;-86
2021/08/09 09:35:40;;;;;;;8.07;2.10;;;19.90;88.00;;;;;;4978491;28;20072;-86
2021/08/09 09:38:06;;;;;;;6.25;1.83;;;19.90;88.20;;;;;;4982822;28;20510;-86
2021/08/09 09:40:42;;;;;;;4.38;1.80;;;19.90;86.80;;;;;;4998512;28;20041;-86
2021/08/09 09:43:38;;;;;;;4.20;1.75;;;19.90;87.00;;;;;;5006764;28;20383;-86
2021/08/09 09:46:04;;;;;;;5.35;1.73;;;19.90;87.90;;;;;;5007050;28;20120;-86
2021/08/09 09:48:36;;;;;;;5.65;1.70;;;19.90;90.00;;;;;;5012912;28;20121;-86
2021/08/09 09:51:13;;;;;;;6.50;1.67;;;20.00;87.60;;;;;;5012143;28;20057;-85
2021/08/09 09:53:41;;;;;;;6.05;1.98;;;20.10;88.10;;;;;;5028008;28;20518;-86
2021/08/09 09:56:09;;;;;;;5.80;2.10;;;20.10;88.70;;;;;;5019816;28;20022;-86
2021/08/09 09:58:39;;;;;;;5.32;1.80;;;20.20;88.90;;;;;;5026822;28;20096;-86
2021/08/09 10:01:06;;;;;;;4.97;1.90;;;20.30;89.80;;;;;;4998372;28;20087;-86
2021/08/09 10:03:36;;;;;;;5.68;1.80;;;20.40;88.80;;;;;;5031985;28;20025;-86
2021/08/09 10:06:03;;;;;;;6.65;1.85;;;20.50;88.50;;;;;;5008891;28;20020;-86
2021/08/09 10:08:33;;;;;;;6.18;2.05;;;20.50;88.20;;;;;;5005684;28;20387;-87
2021/08/09 10:11:02;;;;;;;6.82;1.80;;;20.50;88.70;;;;;;5013966;28;20101;-86
2021/08/09 10:13:31;;;;;;;6.97;2.03;;;20.60;87.60;;;;;;5014059;28;20083;-87
2021/08/09 10:16:02;;;;;;;7.38;2.35;;;20.60;88.00;;;;;;5031545;28;20064;-86
2021/08/09 10:18:30;;;;;;;5.65;1.70;;;20.70;86.10;;;;;;5013933;28;20091;-86
2021/08/09 10:20:58;;;;;;;5.85;1.90;;;20.60;87.10;;;;;;5026199;28;20030;-86
2021/08/09 10:23:42;;;;;;;4.50;1.63;;;20.60;85.30;;;;;;5014875;28;20497;-85
2021/08/09 10:26:30;;;;;;;3.90;1.48;;;20.60;85.60;;;;;;5034772;28;20014;-86
2021/08/09 10:28:56;;;;;;;4.22;1.65;;;20.60;86.30;;;;;;5005801;28;20437;-86
2021/08/09 10:31:30;;;;;;;3.55;1.60;;;20.70;86.00;;;;;;5014962;28;20021;-87
2021/08/09 10:33:56;;;;;;;5.78;1.73;;;20.70;87.60;;;;;;5017602;28;20026;-87
2021/08/09 10:36:23;;;;;;;3.42;1.67;;;20.70;86.50;;;;;;5018108;23;20178;-87
2021/08/09 10:38:52;;;;;;;4.57;1.50;;;20.70;87.00;;;;;;5016478;28;20547;-87
2021/08/09 10:41:27;;;;;;;5.97;1.63;;;20.80;85.60;;;;;;4995546;28;20050;-87
2021/08/09 10:44:04;;;;;;;5.53;1.70;;;20.80;85.90;;;;;;4995549;28;20121;-87
2021/08/09 10:46:41;;;;;;;4.43;1.58;;;20.90;85.60;;;;;;4997854;28;20470;-86
2021/08/09 10:49:09;;;;;;;3.53;1.50;;;20.90;84.80;;;;;;5015664;28;20073;-86
2021/08/09 10:51:57;;;;;;;4.13;1.75;;;20.90;82.60;;;;;;4982178;28;20022;-86
2021/08/09 10:54:30;;;;;;;6.38;1.60;;;20.90;82.40;;;;;;5001144;28;20092;-86
2021/08/09 10:56:57;;;;;;;3.55;1.30;;;20.90;82.90;;;;;;5008715;28;20029;-86
2021/08/09 10:59:41;;;;;;;5.18;1.45;;;20.90;82.70;;;;;;4997311;28;20096;-86
2021/08/09 11:02:27;;;;;;;3.60;1.50;;;20.90;80.50;;;;;;5009583;28;20391;-86
2021/08/09 11:05:12;;;;;;;3.10;1.30;;;20.90;81.00;;;;;;4994338;28;20168;-86
2021/08/09 11:07:38;;;;;;;3.85;1.25;;;20.90;80.10;;;;;;4996797;28;20026;-86
2021/08/09 11:10:05;;;;;;;2.55;1.23;;;20.80;80.10;;;;;;4979803;28;20058;-86
2021/08/09 11:12:30;;;;;;;4.43;1.23;;;20.80;81.70;;;;;;4981077;28;20471;-86
2021/08/09 11:15:10;;;;;;;5.00;1.70;;;20.80;82.20;;;;;;5014708;28;20041;-86
2021/08/09 11:17:39;;;;;;;4.53;1.40;;;20.80;81.40;;;;;;4996695;28;20172;-86
2021/08/09 11:20:12;;;;;;;6.63;1.80;;;20.70;82.30;;;;;;4996653;28;20377;-86
2021/08/09 11:22:39;;;;;;;5.07;1.70;;;20.70;83.10;;;;;;5011537;28;20029;-87
2021/08/09 11:25:25;;;;;;;4.43;1.30;;;20.60;82.90;;;;;;5013931;28;20030;-87
2021/08/09 11:28:09;;;;;;;3.40;1.20;;;20.60;82.90;;;;;;4996551;28;20212;-85
2021/08/09 11:30:49;;;;;;;5.65;1.38;;;20.40;83.10;;;;;;4996964;28;20084;-87
2021/08/09 11:33:29;;;;;;;3.55;1.42;;;20.40;82.50;;;;;;5000478;28;20120;-85
2021/08/09 11:35:58;;;;;;;3.67;1.23;;;20.30;83.90;;;;;;5010111;28;20038;-86
2021/08/09 11:38:24;;;;;;;3.10;1.30;;;20.30;84.20;;;;;;4995082;28;20037;-86
2021/08/09 11:40:52;;;;;;;3.28;1.42;;;20.20;84.30;;;;;;4996161;28;20446;-86
2021/08/09 11:43:22;;;;;;;4.32;1.35;;;20.20;84.70;;;;;;5012388;28;20014;-86
2021/08/09 11:45:48;;;;;;;4.43;1.37;;;20.30;85.50;;;;;;5020839;28;20113;-86
2021/08/09 11:48:22;;;;;;;4.47;1.48;;;20.30;86.10;;;;;;5012261;28;20113;-85
2021/08/09 11:50:56;;;;;;;5.63;1.70;;;20.40;85.30;;;;;;4996727;28;20017;-84
2021/08/09 11:53:21;;;;;;;4.32;1.45;;;20.50;85.20;;;;;;5005951;28;20041;-85
2021/08/09 11:55:47;;;;;;;5.55;1.60;;;20.60;85.80;;;;;;5016139;28;20025;-86
2021/08/09 11:58:29;;;;;;;3.92;1.50;;;20.60;83.40;;;;;;5009202;28;20521;-85
2021/08/09 12:00:55;;;;;;;2.95;1.45;;;20.60;82.00;;;;;;5020029;28;20321;-85
2021/08/09 12:03:23;;;;;;;2.90;1.30;;;20.60;83.20;;;;;;5016394;28;20029;-86
2021/08/09 12:05:48;;;;;;;4.63;1.20;;;20.70;84.40;;;;;;4980258;28;20376;-85
2021/08/09 12:08:14;;;;;;;3.95;1.35;;;20.70;82.00;;;;;;4996355;28;20041;-85
2021/08/09 12:10:40;;;;;;;5.97;1.67;;;20.70;81.10;;;;;;4996487;28;20018;-84
2021/08/09 12:13:28;;;;;;;3.58;1.40;;;20.80;81.00;;;;;;5013562;28;20030;-84
2021/08/09 12:16:08;;;;;;;5.13;1.60;;;20.70;80.90;;;;;;4996269;28;20418;-84
2021/08/09 12:18:34;;;;;;;3.85;1.35;;;20.70;81.20;;;;;;4993305;28;20021;-84
2021/08/09 12:21:08;;;;;;;5.32;1.35;;;20.80;82.00;;;;;;4995194;28;20033;-84
2021/08/09 12:23:34;;;;;;;3.53;1.30;;;20.80;80.60;;;;;;4991332;28;20093;-85
2021/08/09 12:25:59;;;;;;;4.07;1.20;;;20.70;81.00;;;;;;4979509;28;20546;-84
2021/08/09 12:28:31;;;;;;;5.80;1.83;;;20.70;81.70;;;;;;5021261;28;20501;-85
2021/08/09 12:30:57;;;;;;;5.50;1.42;;;20.70;82.10;;;;;;4979861;28;20099;-85
2021/08/09 12:33:22;;;;;;;3.92;1.17;;;20.80;83.40;;;;;;4996229;28;20463;-85
2021/08/09 12:35:48;;;;;;;3.17;1.30;;;20.90;82.20;;;;;;4995751;28;20054;-84
2021/08/09 12:38:15;;;;;;;3.33;1.40;;;21.10;81.70;;;;;;4997503;28;20391;-85
2021/08/09 12:40:52;;;;;;;4.93;1.25;;;21.10;80.30;;;;;;4998221;28;20033;-85
2021/08/09 12:43:20;;;;;;;2.50;1.23;;;21.20;81.50;;;;;;4995251;28;20406;-85
2021/08/09 12:45:47;;;;;;;4.70;1.50;;;21.30;82.30;;;;;;4995176;28;20411;-85
2021/08/09 12:48:13;;;;;;;3.97;1.63;;;21.30;80.50;;;;;;5026283;28;20079;-84
2021/08/09 12:50:40;;;;;;;3.95;1.58;;;21.30;81.70;;;;;;4993172;28;20571;-84
2021/08/09 12:53:07;;;;;;;5.72;1.20;;;21.30;79.70;;;;;;4995699;28;20149;-85
2021/08/09 12:55:34;;;;;;;4.20;1.23;;;21.40;80.40;;;;;;4979202;28;20084;-85
2021/08/09 12:58:00;;;;;;;3.90;1.67;;;21.50;81.40;;;;;;4995278;28;20025;-84
2021/08/09 13:00:27;;;;;;;3.65;1.20;;;21.50;79.00;;;;;;4994189;28;20026;-84
2021/08/09 13:02:53;;;;;;;2.55;1.10;;;21.40;79.70;;;;;;4995164;28;20022;-84